sensor_id;sensor_type;location;lat;lon;timestamp;temperature;humidity
1568;DHT22;777;47.156;8.326;2023-05-28T00:01:28;14.50;99.90
1568;DHT22;777;47.156;8.326;2023-05-28T00:03:55;14.60;99.90
1568;DHT22;777;47.156;8.326;2023-05-28T00:06:21;14.20;99.90
1568;DHT22;777;47.156;8.326;2023-05-28T00:08:48;14.30;99.90
1568;DHT22;777;47.156;8.326;2023-05-28T00:11:15;14.40;99.90
1568;DHT22;777;47.156;8.326;2023-05-28T00:13:42;14.50;99.90
1568;DHT22;777;47.156;8.326;2023-05-28T00:16:11;14.00;99.90
1568;DHT22;777;47.156;8.326;2023-05-28T00:18:39;13.90;99.90
1568;DHT22;777;47.156;8.326;2023-05-28T00:21:06;13.80;99.90
1568;DHT22;777;47.156;8.326;2023-05-28T00:23:33;13.70;99.90
1568;DHT22;777;47.156;8.326;2023-05-28T00:26:00;13.90;99.90
1568;DHT22;777;47.156;8.326;2023-05-28T00:28:28;14.00;99.90
1568;DHT22;777;47.156;8.326;2023-05-28T00:30:55;14.10;99.90
1568;DHT22;777;47.156;8.326;2023-05-28T00:33:23;13.90;99.90
1568;DHT22;777;47.156;8.326;2023-05-28T00:35:51;13.70;99.90
1568;DHT22;777;47.156;8.326;2023-05-28T00:38:21;13.90;99.90
1568;DHT22;777;47.156;8.326;2023-05-28T00:40:48;14.00;99.90
1568;DHT22;777;47.156;8.326;2023-05-28T00:43:16;14.00;99.90
1568;DHT22;777;47.156;8.326;2023-05-28T00:45:46;14.00;99.90
1568;DHT22;777;47.156;8.326;2023-05-28T00:48:14;13.50;99.90
1568;DHT22;777;47.156;8.326;2023-05-28T00:50:42;13.50;99.90
1568;DHT22;777;47.156;8.326;2023-05-28T00:53:10;13.50;99.90
1568;DHT22;777;47.156;8.326;2023-05-28T00:55:38;13.40;99.90
1568;DHT22;777;47.156;8.326;2023-05-28T00:58:05;13.40;99.90
1568;DHT22;777;47.156;8.326;2023-05-28T01:00:33;13.40;99.90
1568;DHT22;777;47.156;8.326;2023-05-28T01:03:00;13.20;99.90
1568;DHT22;777;47.156;8.326;2023-05-28T01:05:28;13.10;99.90
1568;DHT22;777;47.156;8.326;2023-05-28T01:07:59;13.10;99.90
1568;DHT22;777;47.156;8.326;2023-05-28T01:10:27;12.90;99.90
1568;DHT22;777;47.156;8.326;2023-05-28T01:12:54;13.00;99.90
1568;DHT22;777;47.156;8.326;2023-05-28T01:15:22;13.00;99.90
1568;DHT22;777;47.156;8.326;2023-05-28T01:17:55;13.10;99.90
1568;DHT22;777;47.156;8.326;2023-05-28T01:20:23;13.10;99.90
1568;DHT22;777;47.156;8.326;2023-05-28T01:22:54;13.20;99.90
1568;DHT22;777;47.156;8.326;2023-05-28T01:25:24;13.20;99.90
1568;DHT22;777;47.156;8.326;2023-05-28T01:27:51;13.40;99.90
1568;DHT22;777;47.156;8.326;2023-05-28T01:30:19;13.20;99.90
1568;DHT22;777;47.156;8.326;2023-05-28T01:32:47;12.80;99.90
1568;DHT22;777;47.156;8.326;2023-05-28T01:35:14;12.90;99.90
1568;DHT22;777;47.156;8.326;2023-05-28T01:37:47;12.90;99.90
1568;DHT22;777;47.156;8.326;2023-05-28T01:40:16;12.90;99.90
1568;DHT22;777;47.156;8.326;2023-05-28T01:42:45;12.90;99.90
1568;DHT22;777;47.156;8.326;2023-05-28T01:45:13;12.90;99.90
1568;DHT22;777;47.156;8.326;2023-05-28T01:47:41;12.80;99.90
1568;DHT22;777;47.156;8.326;2023-05-28T01:50:09;12.60;99.90
1568;DHT22;777;47.156;8.326;2023-05-28T01:52:36;12.20;99.90
1568;DHT22;777;47.156;8.326;2023-05-28T01:55:03;12.20;99.90
1568;DHT22;777;47.156;8.326;2023-05-28T01:57:30;12.30;99.90
1568;DHT22;777;47.156;8.326;2023-05-28T01:59:59;12.40;99.90
1568;DHT22;777;47.156;8.326;2023-05-28T02:02:27;12.20;99.90
1568;DHT22;777;47.156;8.326;2023-05-28T02:04:54;12.10;99.90
1568;DHT22;777;47.156;8.326;2023-05-28T02:07:21;12.10;99.90
1568;DHT22;777;47.156;8.326;2023-05-28T02:09:49;12.20;99.90
1568;DHT22;777;47.156;8.326;2023-05-28T02:12:16;12.30;99.90
1568;DHT22;777;47.156;8.326;2023-05-28T02:14:44;12.40;99.90
1568;DHT22;777;47.156;8.326;2023-05-28T02:17:12;12.60;99.90
1568;DHT22;777;47.156;8.326;2023-05-28T02:19:39;12.40;99.90
1568;DHT22;777;47.156;8.326;2023-05-28T02:22:06;11.70;99.90
1568;DHT22;777;47.156;8.326;2023-05-28T02:24:37;11.80;99.90
1568;DHT22;777;47.156;8.326;2023-05-28T02:27:05;12.00;99.90
1568;DHT22;777;47.156;8.326;2023-05-28T02:29:32;12.20;99.90
1568;DHT22;777;47.156;8.326;2023-05-28T02:31:59;12.10;99.90
1568;DHT22;777;47.156;8.326;2023-05-28T02:34:28;11.70;99.90
1568;DHT22;777;47.156;8.326;2023-05-28T02:36:55;11.80;99.90
1568;DHT22;777;47.156;8.326;2023-05-28T02:39:22;11.60;99.90
1568;DHT22;777;47.156;8.326;2023-05-28T02:41:49;11.60;99.90
1568;DHT22;777;47.156;8.326;2023-05-28T02:44:17;11.90;99.90
1568;DHT22;777;47.156;8.326;2023-05-28T02:46:45;12.00;99.90
1568;DHT22;777;47.156;8.326;2023-05-28T02:49:14;12.10;99.90
1568;DHT22;777;47.156;8.326;2023-05-28T02:51:43;12.10;99.90
1568;DHT22;777;47.156;8.326;2023-05-28T02:54:20;12.10;99.90
1568;DHT22;777;47.156;8.326;2023-05-28T02:56:47;12.10;99.90
1568;DHT22;777;47.156;8.326;2023-05-28T02:59:14;11.70;99.90
1568;DHT22;777;47.156;8.326;2023-05-28T03:01:41;11.60;99.90
1568;DHT22;777;47.156;8.326;2023-05-28T03:04:09;11.60;99.90
1568;DHT22;777;47.156;8.326;2023-05-28T03:06:36;11.50;99.90
1568;DHT22;777;47.156;8.326;2023-05-28T03:09:04;11.40;99.90
1568;DHT22;777;47.156;8.326;2023-05-28T03:11:32;11.40;99.90
1568;DHT22;777;47.156;8.326;2023-05-28T03:13:58;11.60;99.90
1568;DHT22;777;47.156;8.326;2023-05-28T03:16:26;11.90;99.90
1568;DHT22;777;47.156;8.326;2023-05-28T03:18:53;11.90;99.90
1568;DHT22;777;47.156;8.326;2023-05-28T03:21:20;11.40;99.90
1568;DHT22;777;47.156;8.326;2023-05-28T03:23:47;11.00;99.90
1568;DHT22;777;47.156;8.326;2023-05-28T03:26:24;11.30;99.90
1568;DHT22;777;47.156;8.326;2023-05-28T03:28:52;11.10;99.90
1568;DHT22;777;47.156;8.326;2023-05-28T03:31:27;11.30;99.90
1568;DHT22;777;47.156;8.326;2023-05-28T03:33:55;11.40;99.90
1568;DHT22;777;47.156;8.326;2023-05-28T03:36:22;11.40;99.90
1568;DHT22;777;47.156;8.326;2023-05-28T03:38:50;11.40;99.90
1568;DHT22;777;47.156;8.326;2023-05-28T03:41:17;11.70;99.90
1568;DHT22;777;47.156;8.326;2023-05-28T03:43:46;11.30;99.90
1568;DHT22;777;47.156;8.326;2023-05-28T03:46:13;11.20;99.90
1568;DHT22;777;47.156;8.326;2023-05-28T03:48:40;11.30;99.90
1568;DHT22;777;47.156;8.326;2023-05-28T03:51:07;11.40;99.90
1568;DHT22;777;47.156;8.326;2023-05-28T03:53:35;11.40;99.90
1568;DHT22;777;47.156;8.326;2023-05-28T03:56:02;11.30;99.90
1568;DHT22;777;47.156;8.326;2023-05-28T03:58:31;11.50;99.90
1568;DHT22;777;47.156;8.326;2023-05-28T04:01:01;11.70;99.90
1568;DHT22;777;47.156;8.326;2023-05-28T04:03:28;11.70;99.90
1568;DHT22;777;47.156;8.326;2023-05-28T04:05:55;11.40;99.90
1568;DHT22;777;47.156;8.326;2023-05-28T04:08:22;11.20;99.90
1568;DHT22;777;47.156;8.326;2023-05-28T04:10:49;11.40;99.90
1568;DHT22;777;47.156;8.326;2023-05-28T04:13:17;11.70;99.90
1568;DHT22;777;47.156;8.326;2023-05-28T04:15:44;11.60;99.90
1568;DHT22;777;47.156;8.326;2023-05-28T04:18:12;11.60;99.90
1568;DHT22;777;47.156;8.326;2023-05-28T04:20:40;11.70;99.90
1568;DHT22;777;47.156;8.326;2023-05-28T04:23:07;12.10;99.90
1568;DHT22;777;47.156;8.326;2023-05-28T04:25:34;12.50;99.90
1568;DHT22;777;47.156;8.326;2023-05-28T04:28:02;12.80;99.90
1568;DHT22;777;47.156;8.326;2023-05-28T04:30:30;13.30;99.90
1568;DHT22;777;47.156;8.326;2023-05-28T04:32:58;13.70;99.90
1568;DHT22;777;47.156;8.326;2023-05-28T04:35:26;13.90;99.90
1568;DHT22;777;47.156;8.326;2023-05-28T04:37:55;14.00;99.90
1568;DHT22;777;47.156;8.326;2023-05-28T04:40:22;13.90;99.90
1568;DHT22;777;47.156;8.326;2023-05-28T04:42:49;14.00;99.90
1568;DHT22;777;47.156;8.326;2023-05-28T04:45:20;14.10;99.90
1568;DHT22;777;47.156;8.326;2023-05-28T04:47:48;14.10;99.90
1568;DHT22;777;47.156;8.326;2023-05-28T04:50:15;14.30;99.90
1568;DHT22;777;47.156;8.326;2023-05-28T04:52:43;15.10;99.90
1568;DHT22;777;47.156;8.326;2023-05-28T04:55:10;15.20;99.90
1568;DHT22;777;47.156;8.326;2023-05-28T04:57:39;15.80;99.90
1568;DHT22;777;47.156;8.326;2023-05-28T05:00:07;16.40;99.90
1568;DHT22;777;47.156;8.326;2023-05-28T05:02:38;16.80;99.90
1568;DHT22;777;47.156;8.326;2023-05-28T05:05:07;16.80;99.90
1568;DHT22;777;47.156;8.326;2023-05-28T05:07:34;16.40;99.90
1568;DHT22;777;47.156;8.326;2023-05-28T05:10:06;16.90;99.90
1568;DHT22;777;47.156;8.326;2023-05-28T05:12:35;17.40;99.90
1568;DHT22;777;47.156;8.326;2023-05-28T05:15:03;17.90;99.90
1568;DHT22;777;47.156;8.326;2023-05-28T05:17:31;18.40;99.90
1568;DHT22;777;47.156;8.326;2023-05-28T05:20:01;18.70;99.90
1568;DHT22;777;47.156;8.326;2023-05-28T05:22:30;19.10;99.90
1568;DHT22;777;47.156;8.326;2023-05-28T05:24:57;19.30;99.90
1568;DHT22;777;47.156;8.326;2023-05-28T05:27:25;19.70;99.90
1568;DHT22;777;47.156;8.326;2023-05-28T05:29:54;19.90;99.90
1568;DHT22;777;47.156;8.326;2023-05-28T05:32:21;20.20;99.90
1568;DHT22;777;47.156;8.326;2023-05-28T05:34:48;20.30;99.90
1568;DHT22;777;47.156;8.326;2023-05-28T05:37:24;20.60;99.90
1568;DHT22;777;47.156;8.326;2023-05-28T05:40:14;21.00;99.90
1568;DHT22;777;47.156;8.326;2023-05-28T05:42:56;21.20;99.90
1568;DHT22;777;47.156;8.326;2023-05-28T05:45:24;21.40;99.90
1568;DHT22;777;47.156;8.326;2023-05-28T05:47:52;20.90;99.90
1568;DHT22;777;47.156;8.326;2023-05-28T05:50:19;20.50;99.90
1568;DHT22;777;47.156;8.326;2023-05-28T05:52:47;21.00;99.90
1568;DHT22;777;47.156;8.326;2023-05-28T05:55:14;21.00;99.90
1568;DHT22;777;47.156;8.326;2023-05-28T05:57:42;21.50;99.90
1568;DHT22;777;47.156;8.326;2023-05-28T06:00:12;21.60;99.90
1568;DHT22;777;47.156;8.326;2023-05-28T06:02:44;21.30;99.90
1568;DHT22;777;47.156;8.326;2023-05-28T06:05:38;21.10;99.90
1568;DHT22;777;47.156;8.326;2023-05-28T06:08:28;20.50;99.90
1568;DHT22;777;47.156;8.326;2023-05-28T06:11:00;19.80;99.90
1568;DHT22;777;47.156;8.326;2023-05-28T06:13:27;20.10;99.90
1568;DHT22;777;47.156;8.326;2023-05-28T06:15:55;19.80;99.90
1568;DHT22;777;47.156;8.326;2023-05-28T06:18:23;19.80;99.90
1568;DHT22;777;47.156;8.326;2023-05-28T06:20:50;19.70;99.90
1568;DHT22;777;47.156;8.326;2023-05-28T06:23:17;19.50;99.90
1568;DHT22;777;47.156;8.326;2023-05-28T06:25:44;19.40;99.90
1568;DHT22;777;47.156;8.326;2023-05-28T06:28:11;19.50;99.90
1568;DHT22;777;47.156;8.326;2023-05-28T06:30:39;19.60;99.90
1568;DHT22;777;47.156;8.326;2023-05-28T06:33:08;19.70;99.90
1568;DHT22;777;47.156;8.326;2023-05-28T06:35:35;19.70;99.90
1568;DHT22;777;47.156;8.326;2023-05-28T06:38:03;20.10;99.90
1568;DHT22;777;47.156;8.326;2023-05-28T06:40:30;20.70;99.90
1568;DHT22;777;47.156;8.326;2023-05-28T06:42:58;20.80;99.90
1568;DHT22;777;47.156;8.326;2023-05-28T06:45:34;21.10;99.90
1568;DHT22;777;47.156;8.326;2023-05-28T06:48:02;20.90;99.90
1568;DHT22;777;47.156;8.326;2023-05-28T06:50:31;20.70;99.90
1568;DHT22;777;47.156;8.326;2023-05-28T06:52:58;21.10;99.90
1568;DHT22;777;47.156;8.326;2023-05-28T06:55:27;21.50;99.90
1568;DHT22;777;47.156;8.326;2023-05-28T06:58:19;22.00;99.90
1568;DHT22;777;47.156;8.326;2023-05-28T07:01:10;22.10;99.90
1568;DHT22;777;47.156;8.326;2023-05-28T07:03:48;22.40;99.90
1568;DHT22;777;47.156;8.326;2023-05-28T07:06:38;22.50;99.90
1568;DHT22;777;47.156;8.326;2023-05-28T07:09:08;22.50;99.90
1568;DHT22;777;47.156;8.326;2023-05-28T07:11:36;22.10;99.90
1568;DHT22;777;47.156;8.326;2023-05-28T07:14:03;22.20;99.90
1568;DHT22;777;47.156;8.326;2023-05-28T07:16:30;22.30;99.90
1568;DHT22;777;47.156;8.326;2023-05-28T07:18:57;22.20;99.90
1568;DHT22;777;47.156;8.326;2023-05-28T07:21:25;22.30;99.90
1568;DHT22;777;47.156;8.326;2023-05-28T07:23:53;22.00;99.90
1568;DHT22;777;47.156;8.326;2023-05-28T07:26:21;22.00;99.90
1568;DHT22;777;47.156;8.326;2023-05-28T07:28:48;21.80;99.90
1568;DHT22;777;47.156;8.326;2023-05-28T07:31:15;21.70;99.90
1568;DHT22;777;47.156;8.326;2023-05-28T07:33:43;21.70;99.90
1568;DHT22;777;47.156;8.326;2023-05-28T07:36:10;21.90;99.90
1568;DHT22;777;47.156;8.326;2023-05-28T07:38:37;21.80;99.90
1568;DHT22;777;47.156;8.326;2023-05-28T07:41:06;21.80;99.90
1568;DHT22;777;47.156;8.326;2023-05-28T07:43:40;21.70;99.90
1568;DHT22;777;47.156;8.326;2023-05-28T07:46:15;22.10;99.90
1568;DHT22;777;47.156;8.326;2023-05-28T07:48:47;22.40;99.90
1568;DHT22;777;47.156;8.326;2023-05-28T07:51:22;22.00;99.90
1568;DHT22;777;47.156;8.326;2023-05-28T07:53:59;21.60;99.90
1568;DHT22;777;47.156;8.326;2023-05-28T07:56:28;21.80;99.90
1568;DHT22;777;47.156;8.326;2023-05-28T07:58:55;21.60;99.90
1568;DHT22;777;47.156;8.326;2023-05-28T08:01:23;21.10;99.90
1568;DHT22;777;47.156;8.326;2023-05-28T08:03:50;20.50;99.90
1568;DHT22;777;47.156;8.326;2023-05-28T08:06:23;20.90;99.90
1568;DHT22;777;47.156;8.326;2023-05-28T08:08:51;20.70;99.90
1568;DHT22;777;47.156;8.326;2023-05-28T08:11:18;20.20;99.90
1568;DHT22;777;47.156;8.326;2023-05-28T08:13:47;20.30;99.90
1568;DHT22;777;47.156;8.326;2023-05-28T08:16:14;20.40;99.90
1568;DHT22;777;47.156;8.326;2023-05-28T08:19:04;20.10;99.90
1568;DHT22;777;47.156;8.326;2023-05-28T08:21:33;20.30;99.90
1568;DHT22;777;47.156;8.326;2023-05-28T08:24:02;20.50;99.90
1568;DHT22;777;47.156;8.326;2023-05-28T08:26:30;19.80;99.90
1568;DHT22;777;47.156;8.326;2023-05-28T08:28:59;19.80;99.90
1568;DHT22;777;47.156;8.326;2023-05-28T08:31:27;20.00;99.90
1568;DHT22;777;47.156;8.326;2023-05-28T08:34:06;19.20;99.90
1568;DHT22;777;47.156;8.326;2023-05-28T08:36:33;20.10;99.90
1568;DHT22;777;47.156;8.326;2023-05-28T08:39:02;20.40;99.90
1568;DHT22;777;47.156;8.326;2023-05-28T08:41:30;20.50;99.90
1568;DHT22;777;47.156;8.326;2023-05-28T08:43:58;20.50;99.90
1568;DHT22;777;47.156;8.326;2023-05-28T08:46:27;20.20;99.90
1568;DHT22;777;47.156;8.326;2023-05-28T08:49:17;20.60;99.90
1568;DHT22;777;47.156;8.326;2023-05-28T08:51:48;20.50;99.90
1568;DHT22;777;47.156;8.326;2023-05-28T08:54:17;20.20;99.90
1568;DHT22;777;47.156;8.326;2023-05-28T08:56:44;21.00;99.90
1568;DHT22;777;47.156;8.326;2023-05-28T08:59:14;22.10;99.90
1568;DHT22;777;47.156;8.326;2023-05-28T09:01:42;22.20;99.90
1568;DHT22;777;47.156;8.326;2023-05-28T09:04:15;22.40;99.90
1568;DHT22;777;47.156;8.326;2023-05-28T09:06:45;22.30;99.90
1568;DHT22;777;47.156;8.326;2023-05-28T09:09:24;21.80;99.90
1568;DHT22;777;47.156;8.326;2023-05-28T09:11:57;22.60;99.90
1568;DHT22;777;47.156;8.326;2023-05-28T09:14:28;23.10;99.90
1568;DHT22;777;47.156;8.326;2023-05-28T09:16:55;23.50;99.90
1568;DHT22;777;47.156;8.326;2023-05-28T09:19:25;23.80;99.90
1568;DHT22;777;47.156;8.326;2023-05-28T09:21:54;23.90;99.90
1568;DHT22;777;47.156;8.326;2023-05-28T09:24:28;24.10;99.90
1568;DHT22;777;47.156;8.326;2023-05-28T09:27:02;24.00;99.90
1568;DHT22;777;47.156;8.326;2023-05-28T09:29:34;24.30;99.90
1568;DHT22;777;47.156;8.326;2023-05-28T09:32:01;24.50;99.90
1568;DHT22;777;47.156;8.326;2023-05-28T09:34:29;24.50;99.90
1568;DHT22;777;47.156;8.326;2023-05-28T09:37:00;24.60;99.90
1568;DHT22;777;47.156;8.326;2023-05-28T09:39:28;24.50;99.90
1568;DHT22;777;47.156;8.326;2023-05-28T09:41:59;24.60;99.90
1568;DHT22;777;47.156;8.326;2023-05-28T09:44:30;24.80;99.90
1568;DHT22;777;47.156;8.326;2023-05-28T09:46:59;25.00;99.90
1568;DHT22;777;47.156;8.326;2023-05-28T09:49:28;25.20;99.90
1568;DHT22;777;47.156;8.326;2023-05-28T09:51:57;25.30;99.90
1568;DHT22;777;47.156;8.326;2023-05-28T09:54:25;25.30;99.90
1568;DHT22;777;47.156;8.326;2023-05-28T09:56:54;25.10;99.90
1568;DHT22;777;47.156;8.326;2023-05-28T09:59:25;25.40;99.90
1568;DHT22;777;47.156;8.326;2023-05-28T10:01:59;25.00;99.90
1568;DHT22;777;47.156;8.326;2023-05-28T10:04:35;24.70;99.90
1568;DHT22;777;47.156;8.326;2023-05-28T10:07:04;24.80;99.90
1568;DHT22;777;47.156;8.326;2023-05-28T10:09:33;25.10;99.90
1568;DHT22;777;47.156;8.326;2023-05-28T10:12:07;25.60;99.90
1568;DHT22;777;47.156;8.326;2023-05-28T10:14:36;25.70;99.90
1568;DHT22;777;47.156;8.326;2023-05-28T10:17:03;25.90;99.90
1568;DHT22;777;47.156;8.326;2023-05-28T10:19:34;25.90;99.90
1568;DHT22;777;47.156;8.326;2023-05-28T10:22:01;26.30;99.90
1568;DHT22;777;47.156;8.326;2023-05-28T10:24:29;26.40;99.90
1568;DHT22;777;47.156;8.326;2023-05-28T10:26:57;26.50;99.90
1568;DHT22;777;47.156;8.326;2023-05-28T10:29:24;26.50;99.90
1568;DHT22;777;47.156;8.326;2023-05-28T10:31:58;26.10;99.90
1568;DHT22;777;47.156;8.326;2023-05-28T10:34:29;26.30;99.90
1568;DHT22;777;47.156;8.326;2023-05-28T10:37:00;26.70;99.90
1568;DHT22;777;47.156;8.326;2023-05-28T10:39:37;25.30;99.90
1568;DHT22;777;47.156;8.326;2023-05-28T10:42:04;25.30;99.90
1568;DHT22;777;47.156;8.326;2023-05-28T10:44:51;25.60;99.90
1568;DHT22;777;47.156;8.326;2023-05-28T10:47:18;25.00;99.90
1568;DHT22;777;47.156;8.326;2023-05-28T10:49:58;24.20;99.90
1568;DHT22;777;47.156;8.326;2023-05-28T10:52:27;24.00;99.90
1568;DHT22;777;47.156;8.326;2023-05-28T10:54:54;24.00;99.90
1568;DHT22;777;47.156;8.326;2023-05-28T10:57:22;24.00;99.90
1568;DHT22;777;47.156;8.326;2023-05-28T10:59:50;23.90;99.90
1568;DHT22;777;47.156;8.326;2023-05-28T11:02:21;24.80;99.90
1568;DHT22;777;47.156;8.326;2023-05-28T11:04:52;25.10;99.90
1568;DHT22;777;47.156;8.326;2023-05-28T11:07:22;25.70;99.90
1568;DHT22;777;47.156;8.326;2023-05-28T11:09:51;25.40;99.90
1568;DHT22;777;47.156;8.326;2023-05-28T11:12:19;24.80;99.90
1568;DHT22;777;47.156;8.326;2023-05-28T11:14:48;24.70;99.90
1568;DHT22;777;47.156;8.326;2023-05-28T11:17:15;25.70;99.90
1568;DHT22;777;47.156;8.326;2023-05-28T11:19:43;24.20;99.90
1568;DHT22;777;47.156;8.326;2023-05-28T11:22:11;23.80;99.90
1568;DHT22;777;47.156;8.326;2023-05-28T11:24:57;23.80;99.90
1568;DHT22;777;47.156;8.326;2023-05-28T11:27:26;23.60;99.90
1568;DHT22;777;47.156;8.326;2023-05-28T11:29:54;23.50;99.90
1568;DHT22;777;47.156;8.326;2023-05-28T11:32:22;24.30;99.90
1568;DHT22;777;47.156;8.326;2023-05-28T11:34:49;24.80;99.90
1568;DHT22;777;47.156;8.326;2023-05-28T11:37:22;25.30;99.90
1568;DHT22;777;47.156;8.326;2023-05-28T11:39:52;24.40;99.90
1568;DHT22;777;47.156;8.326;2023-05-28T11:42:21;24.00;99.90
1568;DHT22;777;47.156;8.326;2023-05-28T11:44:49;24.00;99.90
1568;DHT22;777;47.156;8.326;2023-05-28T11:47:17;24.50;99.90
1568;DHT22;777;47.156;8.326;2023-05-28T11:49:44;24.40;99.90
1568;DHT22;777;47.156;8.326;2023-05-28T11:52:12;24.10;99.90
1568;DHT22;777;47.156;8.326;2023-05-28T11:54:39;23.60;99.90
1568;DHT22;777;47.156;8.326;2023-05-28T11:57:08;24.50;99.90
1568;DHT22;777;47.156;8.326;2023-05-28T11:59:36;24.50;99.90
1568;DHT22;777;47.156;8.326;2023-05-28T12:02:11;24.70;99.90
1568;DHT22;777;47.156;8.326;2023-05-28T12:04:38;25.00;99.90
1568;DHT22;777;47.156;8.326;2023-05-28T12:07:05;25.00;99.90
1568;DHT22;777;47.156;8.326;2023-05-28T12:09:32;24.70;99.90
1568;DHT22;777;47.156;8.326;2023-05-28T12:12:10;24.60;99.90
1568;DHT22;777;47.156;8.326;2023-05-28T12:14:39;25.20;99.90
1568;DHT22;777;47.156;8.326;2023-05-28T12:17:07;26.20;99.90
1568;DHT22;777;47.156;8.326;2023-05-28T12:19:36;28.70;99.90
1568;DHT22;777;47.156;8.326;2023-05-28T12:22:06;27.00;99.90
1568;DHT22;777;47.156;8.326;2023-05-28T12:24:39;28.00;99.90
1568;DHT22;777;47.156;8.326;2023-05-28T12:27:13;28.20;99.90
1568;DHT22;777;47.156;8.326;2023-05-28T12:29:41;27.80;98.20
1568;DHT22;777;47.156;8.326;2023-05-28T12:32:08;26.20;98.50
1568;DHT22;777;47.156;8.326;2023-05-28T12:34:35;27.20;99.70
1568;DHT22;777;47.156;8.326;2023-05-28T12:37:02;28.20;97.80
1568;DHT22;777;47.156;8.326;2023-05-28T12:39:29;28.20;98.10
1568;DHT22;777;47.156;8.326;2023-05-28T12:41:56;29.60;97.60
1568;DHT22;777;47.156;8.326;2023-05-28T12:44:23;28.00;96.60
1568;DHT22;777;47.156;8.326;2023-05-28T12:46:52;27.10;94.10
1568;DHT22;777;47.156;8.326;2023-05-28T12:49:19;27.30;97.60
1568;DHT22;777;47.156;8.326;2023-05-28T12:51:46;27.70;98.00
1568;DHT22;777;47.156;8.326;2023-05-28T12:54:14;27.30;96.00
1568;DHT22;777;47.156;8.326;2023-05-28T12:56:41;27.40;97.80
1568;DHT22;777;47.156;8.326;2023-05-28T12:59:09;27.10;99.40
1568;DHT22;777;47.156;8.326;2023-05-28T13:01:36;26.80;98.80
1568;DHT22;777;47.156;8.326;2023-05-28T13:04:04;28.50;95.40
1568;DHT22;777;47.156;8.326;2023-05-28T13:06:31;28.30;94.20
1568;DHT22;777;47.156;8.326;2023-05-28T13:08:58;26.10;93.40
1568;DHT22;777;47.156;8.326;2023-05-28T13:11:25;27.00;97.60
1568;DHT22;777;47.156;8.326;2023-05-28T13:13:52;27.50;96.40
1568;DHT22;777;47.156;8.326;2023-05-28T13:16:19;27.80;97.70
1568;DHT22;777;47.156;8.326;2023-05-28T13:18:46;30.00;94.60
1568;DHT22;777;47.156;8.326;2023-05-28T13:21:15;31.60;92.20
1568;DHT22;777;47.156;8.326;2023-05-28T13:23:42;31.10;92.40
1568;DHT22;777;47.156;8.326;2023-05-28T13:26:09;31.10;90.80
1568;DHT22;777;47.156;8.326;2023-05-28T13:28:36;27.10;90.20
1568;DHT22;777;47.156;8.326;2023-05-28T13:31:03;26.50;92.30
1568;DHT22;777;47.156;8.326;2023-05-28T13:33:30;27.10;93.20
1568;DHT22;777;47.156;8.326;2023-05-28T13:35:57;28.70;93.50
1568;DHT22;777;47.156;8.326;2023-05-28T13:38:25;30.00;92.40
1568;DHT22;777;47.156;8.326;2023-05-28T13:40:53;31.30;90.50
1568;DHT22;777;47.156;8.326;2023-05-28T13:43:21;31.40;89.60
1568;DHT22;777;47.156;8.326;2023-05-28T13:45:48;32.80;88.10
1568;DHT22;777;47.156;8.326;2023-05-28T13:48:16;33.50;84.80
1568;DHT22;777;47.156;8.326;2023-05-28T13:50:44;30.70;84.10
1568;DHT22;777;47.156;8.326;2023-05-28T13:53:11;28.80;88.00
1568;DHT22;777;47.156;8.326;2023-05-28T13:55:39;28.10;87.30
1568;DHT22;777;47.156;8.326;2023-05-28T13:58:06;28.20;90.20
1568;DHT22;777;47.156;8.326;2023-05-28T14:00:33;28.90;89.70
1568;DHT22;777;47.156;8.326;2023-05-28T14:03:00;28.60;89.20
1568;DHT22;777;47.156;8.326;2023-05-28T14:05:27;27.70;88.90
1568;DHT22;777;47.156;8.326;2023-05-28T14:07:54;28.10;87.80
1568;DHT22;777;47.156;8.326;2023-05-28T14:10:21;28.50;89.20
1568;DHT22;777;47.156;8.326;2023-05-28T14:12:52;29.10;86.90
1568;DHT22;777;47.156;8.326;2023-05-28T14:15:19;28.00;87.30
1568;DHT22;777;47.156;8.326;2023-05-28T14:17:46;27.40;90.10
1568;DHT22;777;47.156;8.326;2023-05-28T14:20:13;29.30;89.60
1568;DHT22;777;47.156;8.326;2023-05-28T14:22:40;28.90;83.90
1568;DHT22;777;47.156;8.326;2023-05-28T14:25:08;28.80;84.00
1568;DHT22;777;47.156;8.326;2023-05-28T14:27:35;30.00;86.60
1568;DHT22;777;47.156;8.326;2023-05-28T14:30:05;29.70;83.40
1568;DHT22;777;47.156;8.326;2023-05-28T14:32:32;27.90;84.70
1568;DHT22;777;47.156;8.326;2023-05-28T14:34:59;28.50;85.70
1568;DHT22;777;47.156;8.326;2023-05-28T14:37:27;31.10;84.10
1568;DHT22;777;47.156;8.326;2023-05-28T14:39:54;29.50;81.90
1568;DHT22;777;47.156;8.326;2023-05-28T14:42:21;27.40;83.00
1568;DHT22;777;47.156;8.326;2023-05-28T14:44:48;28.80;87.80
1568;DHT22;777;47.156;8.326;2023-05-28T14:47:16;29.80;86.50
1568;DHT22;777;47.156;8.326;2023-05-28T14:49:43;31.90;82.60
1568;DHT22;777;47.156;8.326;2023-05-28T14:52:24;30.30;79.50
1568;DHT22;777;47.156;8.326;2023-05-28T14:54:51;29.40;83.60
1568;DHT22;777;47.156;8.326;2023-05-28T14:57:19;29.90;86.20
1568;DHT22;777;47.156;8.326;2023-05-28T14:59:47;30.70;84.90
1568;DHT22;777;47.156;8.326;2023-05-28T15:02:15;30.40;82.60
1568;DHT22;777;47.156;8.326;2023-05-28T15:04:43;28.20;83.10
1568;DHT22;777;47.156;8.326;2023-05-28T15:07:10;27.70;83.90
1568;DHT22;777;47.156;8.326;2023-05-28T15:09:38;27.80;85.50
1568;DHT22;777;47.156;8.326;2023-05-28T15:12:06;27.00;86.50
1568;DHT22;777;47.156;8.326;2023-05-28T15:14:35;27.40;90.10
1568;DHT22;777;47.156;8.326;2023-05-28T15:17:02;27.90;88.60
1568;DHT22;777;47.156;8.326;2023-05-28T15:19:31;28.60;86.00
1568;DHT22;777;47.156;8.326;2023-05-28T15:21:57;26.30;84.90
1568;DHT22;777;47.156;8.326;2023-05-28T15:24:25;27.10;87.00
1568;DHT22;777;47.156;8.326;2023-05-28T15:26:53;26.60;85.20
1568;DHT22;777;47.156;8.326;2023-05-28T15:29:20;27.20;84.90
1568;DHT22;777;47.156;8.326;2023-05-28T15:31:47;26.30;86.60
1568;DHT22;777;47.156;8.326;2023-05-28T15:34:15;25.20;88.00
1568;DHT22;777;47.156;8.326;2023-05-28T15:36:44;25.50;89.70
1568;DHT22;777;47.156;8.326;2023-05-28T15:39:11;26.50;90.80
1568;DHT22;777;47.156;8.326;2023-05-28T15:41:41;26.60;90.40
1568;DHT22;777;47.156;8.326;2023-05-28T15:44:09;26.50;88.60
1568;DHT22;777;47.156;8.326;2023-05-28T15:46:37;26.40;89.40
1568;DHT22;777;47.156;8.326;2023-05-28T15:49:04;26.60;90.10
1568;DHT22;777;47.156;8.326;2023-05-28T15:51:31;25.60;89.20
1568;DHT22;777;47.156;8.326;2023-05-28T15:54:00;25.40;87.30
1568;DHT22;777;47.156;8.326;2023-05-28T15:56:27;25.30;89.80
1568;DHT22;777;47.156;8.326;2023-05-28T15:58:54;25.40;90.70
1568;DHT22;777;47.156;8.326;2023-05-28T16:01:22;26.40;90.20
1568;DHT22;777;47.156;8.326;2023-05-28T16:03:51;25.90;90.00
1568;DHT22;777;47.156;8.326;2023-05-28T16:06:18;25.80;90.40
1568;DHT22;777;47.156;8.326;2023-05-28T16:08:45;26.20;91.30
1568;DHT22;777;47.156;8.326;2023-05-28T16:11:14;25.80;88.30
1568;DHT22;777;47.156;8.326;2023-05-28T16:13:42;26.00;86.80
1568;DHT22;777;47.156;8.326;2023-05-28T16:16:12;25.90;90.40
1568;DHT22;777;47.156;8.326;2023-05-28T16:18:40;25.10;90.90
1568;DHT22;777;47.156;8.326;2023-05-28T16:21:08;24.90;91.40
1568;DHT22;777;47.156;8.326;2023-05-28T16:23:36;24.80;91.60
1568;DHT22;777;47.156;8.326;2023-05-28T16:26:04;25.20;91.10
1568;DHT22;777;47.156;8.326;2023-05-28T16:28:32;25.70;91.70